sensor_id;sensor_type;location;lat;lon;timestamp;temperature;humidity
4406;DHT22;2216;53.806;11.598;2022-08-14T00:01:41;21.00;45.40
4406;DHT22;2216;53.806;11.598;2022-08-14T00:04:07;21.00;45.50
4406;DHT22;2216;53.806;11.598;2022-08-14T00:06:32;21.00;45.50
4406;DHT22;2216;53.806;11.598;2022-08-14T00:08:58;21.00;45.60
4406;DHT22;2216;53.806;11.598;2022-08-14T00:11:24;20.90;45.50
4406;DHT22;2216;53.806;11.598;2022-08-14T00:13:49;20.90;45.50
4406;DHT22;2216;53.806;11.598;2022-08-14T00:16:15;20.80;45.50
4406;DHT22;2216;53.806;11.598;2022-08-14T00:18:41;20.80;45.60
4406;DHT22;2216;53.806;11.598;2022-08-14T00:21:07;20.80;45.60
4406;DHT22;2216;53.806;11.598;2022-08-14T00:23:33;20.80;45.60
4406;DHT22;2216;53.806;11.598;2022-08-14T00:25:58;20.70;45.60
4406;DHT22;2216;53.806;11.598;2022-08-14T00:28:24;20.70;45.70
4406;DHT22;2216;53.806;11.598;2022-08-14T00:30:52;20.60;45.70
4406;DHT22;2216;53.806;11.598;2022-08-14T00:33:21;20.60;45.80
4406;DHT22;2216;53.806;11.598;2022-08-14T00:35:46;20.50;45.80
4406;DHT22;2216;53.806;11.598;2022-08-14T00:38:12;20.50;45.70
4406;DHT22;2216;53.806;11.598;2022-08-14T00:40:38;20.50;45.80
4406;DHT22;2216;53.806;11.598;2022-08-14T00:43:04;20.50;45.90
4406;DHT22;2216;53.806;11.598;2022-08-14T00:45:30;20.40;45.90
4406;DHT22;2216;53.806;11.598;2022-08-14T00:47:56;20.40;45.90
4406;DHT22;2216;53.806;11.598;2022-08-14T00:50:22;20.40;45.90
4406;DHT22;2216;53.806;11.598;2022-08-14T00:52:50;20.30;45.90
4406;DHT22;2216;53.806;11.598;2022-08-14T00:55:17;20.30;46.00
4406;DHT22;2216;53.806;11.598;2022-08-14T00:57:44;20.30;46.20
4406;DHT22;2216;53.806;11.598;2022-08-14T01:00:31;20.20;46.00
4406;DHT22;2216;53.806;11.598;2022-08-14T01:02:58;20.20;46.20
4406;DHT22;2216;53.806;11.598;2022-08-14T01:05:24;20.10;46.00
4406;DHT22;2216;53.806;11.598;2022-08-14T01:07:52;20.10;46.10
4406;DHT22;2216;53.806;11.598;2022-08-14T01:10:22;20.10;46.30
4406;DHT22;2216;53.806;11.598;2022-08-14T01:13:14;20.10;46.30
4406;DHT22;2216;53.806;11.598;2022-08-14T01:15:43;20.00;46.20
4406;DHT22;2216;53.806;11.598;2022-08-14T01:18:10;20.00;46.30
4406;DHT22;2216;53.806;11.598;2022-08-14T01:20:56;20.00;46.30
4406;DHT22;2216;53.806;11.598;2022-08-14T01:23:29;19.90;46.40
4406;DHT22;2216;53.806;11.598;2022-08-14T01:25:56;19.90;46.40
4406;DHT22;2216;53.806;11.598;2022-08-14T01:28:23;19.90;46.50
4406;DHT22;2216;53.806;11.598;2022-08-14T01:30:51;19.80;46.50
4406;DHT22;2216;53.806;11.598;2022-08-14T01:33:26;19.80;46.50
4406;DHT22;2216;53.806;11.598;2022-08-14T01:35:58;19.80;46.80
4406;DHT22;2216;53.806;11.598;2022-08-14T01:38:28;19.70;46.80
4406;DHT22;2216;53.806;11.598;2022-08-14T01:41:02;19.70;46.90
4406;DHT22;2216;53.806;11.598;2022-08-14T01:43:31;19.70;46.90
4406;DHT22;2216;53.806;11.598;2022-08-14T01:46:04;19.70;47.00
4406;DHT22;2216;53.806;11.598;2022-08-14T01:48:31;19.70;47.00
4406;DHT22;2216;53.806;11.598;2022-08-14T01:50:58;19.70;47.10
4406;DHT22;2216;53.806;11.598;2022-08-14T01:53:28;19.60;47.10
4406;DHT22;2216;53.806;11.598;2022-08-14T01:56:01;19.70;47.10
4406;DHT22;2216;53.806;11.598;2022-08-14T01:58:29;19.60;47.10
4406;DHT22;2216;53.806;11.598;2022-08-14T02:00:56;19.70;47.20
4406;DHT22;2216;53.806;11.598;2022-08-14T02:03:25;19.70;47.10
4406;DHT22;2216;53.806;11.598;2022-08-14T02:05:58;19.60;47.10
4406;DHT22;2216;53.806;11.598;2022-08-14T02:08:25;19.60;47.10
4406;DHT22;2216;53.806;11.598;2022-08-14T02:10:55;19.70;47.10
4406;DHT22;2216;53.806;11.598;2022-08-14T02:13:40;19.60;47.10
4406;DHT22;2216;53.806;11.598;2022-08-14T02:16:11;19.60;47.10
4406;DHT22;2216;53.806;11.598;2022-08-14T02:18:42;19.60;47.10
4406;DHT22;2216;53.806;11.598;2022-08-14T02:21:08;19.60;47.30
4406;DHT22;2216;53.806;11.598;2022-08-14T02:23:34;19.60;47.20
4406;DHT22;2216;53.806;11.598;2022-08-14T02:26:02;19.60;47.20
4406;DHT22;2216;53.806;11.598;2022-08-14T02:28:30;19.60;47.10
4406;DHT22;2216;53.806;11.598;2022-08-14T02:30:58;19.50;47.40
4406;DHT22;2216;53.806;11.598;2022-08-14T02:33:24;19.50;47.30
4406;DHT22;2216;53.806;11.598;2022-08-14T02:35:51;19.50;47.30
4406;DHT22;2216;53.806;11.598;2022-08-14T02:38:19;19.50;47.40
4406;DHT22;2216;53.806;11.598;2022-08-14T02:40:45;19.50;47.40
4406;DHT22;2216;53.806;11.598;2022-08-14T02:43:13;19.50;47.40
4406;DHT22;2216;53.806;11.598;2022-08-14T02:45:38;19.40;47.40
4406;DHT22;2216;53.806;11.598;2022-08-14T02:48:05;19.40;47.50
4406;DHT22;2216;53.806;11.598;2022-08-14T02:50:32;19.40;47.50
4406;DHT22;2216;53.806;11.598;2022-08-14T02:53:02;19.40;47.70
4406;DHT22;2216;53.806;11.598;2022-08-14T02:55:27;19.30;47.40
4406;DHT22;2216;53.806;11.598;2022-08-14T02:57:55;19.30;47.50
4406;DHT22;2216;53.806;11.598;2022-08-14T03:00:21;19.30;47.50
4406;DHT22;2216;53.806;11.598;2022-08-14T03:02:48;19.30;47.50
4406;DHT22;2216;53.806;11.598;2022-08-14T03:05:15;19.20;47.40
4406;DHT22;2216;53.806;11.598;2022-08-14T03:07:42;19.20;47.50
4406;DHT22;2216;53.806;11.598;2022-08-14T03:10:09;19.20;47.60
4406;DHT22;2216;53.806;11.598;2022-08-14T03:12:35;19.20;47.70
4406;DHT22;2216;53.806;11.598;2022-08-14T03:15:04;19.20;47.80
4406;DHT22;2216;53.806;11.598;2022-08-14T03:17:34;19.20;48.10
4406;DHT22;2216;53.806;11.598;2022-08-14T03:20:00;19.10;48.00
4406;DHT22;2216;53.806;11.598;2022-08-14T03:22:26;19.10;48.50
4406;DHT22;2216;53.806;11.598;2022-08-14T03:24:52;19.10;47.90
4406;DHT22;2216;53.806;11.598;2022-08-14T03:27:17;19.10;47.90
4406;DHT22;2216;53.806;11.598;2022-08-14T03:29:43;19.10;47.80
4406;DHT22;2216;53.806;11.598;2022-08-14T03:32:09;19.10;47.80
4406;DHT22;2216;53.806;11.598;2022-08-14T03:34:35;19.10;47.80
4406;DHT22;2216;53.806;11.598;2022-08-14T03:37:02;19.00;47.80
4406;DHT22;2216;53.806;11.598;2022-08-14T03:39:28;19.00;47.80
4406;DHT22;2216;53.806;11.598;2022-08-14T03:41:55;19.00;47.80
4406;DHT22;2216;53.806;11.598;2022-08-14T03:44:22;18.90;47.80
4406;DHT22;2216;53.806;11.598;2022-08-14T03:46:49;18.90;47.80
4406;DHT22;2216;53.806;11.598;2022-08-14T03:49:15;18.90;48.40
4406;DHT22;2216;53.806;11.598;2022-08-14T03:51:44;18.90;47.90
4406;DHT22;2216;53.806;11.598;2022-08-14T03:54:10;18.90;47.90
4406;DHT22;2216;53.806;11.598;2022-08-14T03:56:37;18.90;48.00
4406;DHT22;2216;53.806;11.598;2022-08-14T03:59:05;18.80;48.00
4406;DHT22;2216;53.806;11.598;2022-08-14T04:01:34;18.80;48.00
4406;DHT22;2216;53.806;11.598;2022-08-14T04:03:59;18.80;48.00
4406;DHT22;2216;53.806;11.598;2022-08-14T04:06:31;18.80;48.10
4406;DHT22;2216;53.806;11.598;2022-08-14T04:08:58;18.80;48.10
4406;DHT22;2216;53.806;11.598;2022-08-14T04:11:24;18.80;48.10
4406;DHT22;2216;53.806;11.598;2022-08-14T04:13:49;18.80;48.10
4406;DHT22;2216;53.806;11.598;2022-08-14T04:16:17;18.80;48.20
4406;DHT22;2216;53.806;11.598;2022-08-14T04:18:47;18.80;48.30
4406;DHT22;2216;53.806;11.598;2022-08-14T04:21:15;18.80;48.40
4406;DHT22;2216;53.806;11.598;2022-08-14T04:23:43;18.80;48.40
4406;DHT22;2216;53.806;11.598;2022-08-14T04:26:13;18.80;48.40
4406;DHT22;2216;53.806;11.598;2022-08-14T04:28:41;18.80;48.50
4406;DHT22;2216;53.806;11.598;2022-08-14T04:31:07;18.90;48.60
4406;DHT22;2216;53.806;11.598;2022-08-14T04:33:33;18.90;48.60
4406;DHT22;2216;53.806;11.598;2022-08-14T04:36:00;19.00;48.70
4406;DHT22;2216;53.806;11.598;2022-08-14T04:38:26;19.00;48.70
4406;DHT22;2216;53.806;11.598;2022-08-14T04:41:10;19.10;48.80
4406;DHT22;2216;53.806;11.598;2022-08-14T04:43:54;19.10;48.80
4406;DHT22;2216;53.806;11.598;2022-08-14T04:46:21;19.20;48.80
4406;DHT22;2216;53.806;11.598;2022-08-14T04:48:48;19.30;49.40
4406;DHT22;2216;53.806;11.598;2022-08-14T04:51:19;19.40;49.00
4406;DHT22;2216;53.806;11.598;2022-08-14T04:53:47;19.50;49.00
4406;DHT22;2216;53.806;11.598;2022-08-14T04:56:18;19.50;49.00
4406;DHT22;2216;53.806;11.598;2022-08-14T04:58:47;19.60;49.10
4406;DHT22;2216;53.806;11.598;2022-08-14T05:01:13;19.70;49.00
4406;DHT22;2216;53.806;11.598;2022-08-14T05:03:40;19.70;49.00
4406;DHT22;2216;53.806;11.598;2022-08-14T05:06:09;19.80;49.00
4406;DHT22;2216;53.806;11.598;2022-08-14T05:08:36;19.90;49.10
4406;DHT22;2216;53.806;11.598;2022-08-14T05:11:04;20.00;49.20
4406;DHT22;2216;53.806;11.598;2022-08-14T05:13:32;20.10;49.10
4406;DHT22;2216;53.806;11.598;2022-08-14T05:16:00;20.10;49.00
4406;DHT22;2216;53.806;11.598;2022-08-14T05:18:33;20.20;49.10
4406;DHT22;2216;53.806;11.598;2022-08-14T05:21:02;20.30;49.20
4406;DHT22;2216;53.806;11.598;2022-08-14T05:23:33;20.40;49.20
4406;DHT22;2216;53.806;11.598;2022-08-14T05:26:02;20.50;49.30
4406;DHT22;2216;53.806;11.598;2022-08-14T05:28:30;20.70;49.50
4406;DHT22;2216;53.806;11.598;2022-08-14T05:31:04;20.70;49.70
4406;DHT22;2216;53.806;11.598;2022-08-14T05:33:32;20.80;50.00
4406;DHT22;2216;53.806;11.598;2022-08-14T05:36:01;20.80;49.60
4406;DHT22;2216;53.806;11.598;2022-08-14T05:38:38;20.90;49.50
4406;DHT22;2216;53.806;11.598;2022-08-14T05:41:11;21.00;49.70
4406;DHT22;2216;53.806;11.598;2022-08-14T05:43:38;21.10;50.10
4406;DHT22;2216;53.806;11.598;2022-08-14T05:46:05;21.20;50.10
4406;DHT22;2216;53.806;11.598;2022-08-14T05:48:32;21.20;50.00
4406;DHT22;2216;53.806;11.598;2022-08-14T05:50:58;21.30;50.20
4406;DHT22;2216;53.806;11.598;2022-08-14T05:53:25;21.30;50.10
4406;DHT22;2216;53.806;11.598;2022-08-14T05:55:52;21.40;50.80
4406;DHT22;2216;53.806;11.598;2022-08-14T05:58:19;21.50;50.30
4406;DHT22;2216;53.806;11.598;2022-08-14T06:00:46;21.50;50.30
4406;DHT22;2216;53.806;11.598;2022-08-14T06:03:18;21.60;50.70
4406;DHT22;2216;53.806;11.598;2022-08-14T06:05:47;21.70;50.60
4406;DHT22;2216;53.806;11.598;2022-08-14T06:08:20;21.80;50.40
4406;DHT22;2216;53.806;11.598;2022-08-14T06:10:48;21.90;50.60
4406;DHT22;2216;53.806;11.598;2022-08-14T06:13:15;22.00;50.80
4406;DHT22;2216;53.806;11.598;2022-08-14T06:15:41;22.10;50.70
4406;DHT22;2216;53.806;11.598;2022-08-14T06:18:07;22.20;50.70
4406;DHT22;2216;53.806;11.598;2022-08-14T06:20:33;22.30;50.80
4406;DHT22;2216;53.806;11.598;2022-08-14T06:22:59;22.50;50.90
4406;DHT22;2216;53.806;11.598;2022-08-14T06:25:26;22.60;50.60
4406;DHT22;2216;53.806;11.598;2022-08-14T06:27:52;22.70;50.60
4406;DHT22;2216;53.806;11.598;2022-08-14T06:30:20;22.90;50.60
4406;DHT22;2216;53.806;11.598;2022-08-14T06:32:47;23.10;50.60
4406;DHT22;2216;53.806;11.598;2022-08-14T06:35:14;23.20;50.30
4406;DHT22;2216;53.806;11.598;2022-08-14T06:37:50;23.40;50.30
4406;DHT22;2216;53.806;11.598;2022-08-14T06:40:34;23.60;50.30
4406;DHT22;2216;53.806;11.598;2022-08-14T06:43:06;23.70;50.20
4406;DHT22;2216;53.806;11.598;2022-08-14T06:45:35;23.90;50.10
4406;DHT22;2216;53.806;11.598;2022-08-14T06:48:03;24.00;50.00
4406;DHT22;2216;53.806;11.598;2022-08-14T06:50:29;24.10;49.80
4406;DHT22;2216;53.806;11.598;2022-08-14T06:52:59;24.10;49.70
4406;DHT22;2216;53.806;11.598;2022-08-14T06:55:25;24.10;49.50
4406;DHT22;2216;53.806;11.598;2022-08-14T06:57:51;24.20;49.50
4406;DHT22;2216;53.806;11.598;2022-08-14T07:00:24;24.20;49.30
4406;DHT22;2216;53.806;11.598;2022-08-14T07:02:51;24.20;49.40
4406;DHT22;2216;53.806;11.598;2022-08-14T07:05:35;24.20;49.30
4406;DHT22;2216;53.806;11.598;2022-08-14T07:08:28;24.30;49.50
4406;DHT22;2216;53.806;11.598;2022-08-14T07:10:57;24.30;49.60
4406;DHT22;2216;53.806;11.598;2022-08-14T07:13:25;24.40;49.50
4406;DHT22;2216;53.806;11.598;2022-08-14T07:15:55;24.40;49.40
4406;DHT22;2216;53.806;11.598;2022-08-14T07:18:23;24.50;49.40
4406;DHT22;2216;53.806;11.598;2022-08-14T07:20:51;24.50;49.50
4406;DHT22;2216;53.806;11.598;2022-08-14T07:23:18;24.50;49.40
4406;DHT22;2216;53.806;11.598;2022-08-14T07:25:46;24.70;49.50
4406;DHT22;2216;53.806;11.598;2022-08-14T07:28:15;24.70;49.50
4406;DHT22;2216;53.806;11.598;2022-08-14T07:30:42;24.70;49.50
4406;DHT22;2216;53.806;11.598;2022-08-14T07:33:09;24.80;49.60
4406;DHT22;2216;53.806;11.598;2022-08-14T07:35:37;24.90;49.60
4406;DHT22;2216;53.806;11.598;2022-08-14T07:38:05;25.00;49.60
4406;DHT22;2216;53.806;11.598;2022-08-14T07:40:31;25.10;49.60
4406;DHT22;2216;53.806;11.598;2022-08-14T07:42:59;25.10;49.50
4406;DHT22;2216;53.806;11.598;2022-08-14T07:45:26;25.10;49.40
4406;DHT22;2216;53.806;11.598;2022-08-14T07:47:52;25.20;49.50
4406;DHT22;2216;53.806;11.598;2022-08-14T07:50:20;25.20;49.50
4406;DHT22;2216;53.806;11.598;2022-08-14T07:52:47;25.30;49.70
4406;DHT22;2216;53.806;11.598;2022-08-14T07:55:15;25.30;49.60
4406;DHT22;2216;53.806;11.598;2022-08-14T07:57:43;25.40;49.70
4406;DHT22;2216;53.806;11.598;2022-08-14T08:00:14;25.50;49.90
4406;DHT22;2216;53.806;11.598;2022-08-14T08:02:45;25.70;50.00
4406;DHT22;2216;53.806;11.598;2022-08-14T08:05:13;25.90;50.20
4406;DHT22;2216;53.806;11.598;2022-08-14T08:07:41;26.10;50.30
4406;DHT22;2216;53.806;11.598;2022-08-14T08:10:11;26.30;50.20
4406;DHT22;2216;53.806;11.598;2022-08-14T08:13:12;26.50;50.10
4406;DHT22;2216;53.806;11.598;2022-08-14T08:15:45;26.70;50.00
4406;DHT22;2216;53.806;11.598;2022-08-14T08:18:13;26.90;49.90
4406;DHT22;2216;53.806;11.598;2022-08-14T08:20:43;27.00;49.90
4406;DHT22;2216;53.806;11.598;2022-08-14T08:23:14;27.20;49.80
4406;DHT22;2216;53.806;11.598;2022-08-14T08:25:43;27.40;49.90
4406;DHT22;2216;53.806;11.598;2022-08-14T08:28:17;27.60;49.80
4406;DHT22;2216;53.806;11.598;2022-08-14T08:30:53;27.80;49.80
4406;DHT22;2216;53.806;11.598;2022-08-14T08:33:25;28.00;49.80
4406;DHT22;2216;53.806;11.598;2022-08-14T08:35:57;28.10;49.50
4406;DHT22;2216;53.806;11.598;2022-08-14T08:38:25;28.30;49.30
4406;DHT22;2216;53.806;11.598;2022-08-14T08:40:54;28.30;49.10
4406;DHT22;2216;53.806;11.598;2022-08-14T08:43:26;28.20;48.80
4406;DHT22;2216;53.806;11.598;2022-08-14T08:45:58;28.30;48.90
4406;DHT22;2216;53.806;11.598;2022-08-14T08:48:28;28.30;48.90
4406;DHT22;2216;53.806;11.598;2022-08-14T08:50:57;28.30;49.00
4406;DHT22;2216;53.806;11.598;2022-08-14T08:53:35;28.40;49.10
4406;DHT22;2216;53.806;11.598;2022-08-14T08:56:02;28.40;48.90
4406;DHT22;2216;53.806;11.598;2022-08-14T08:58:28;28.50;48.90
4406;DHT22;2216;53.806;11.598;2022-08-14T09:00:56;28.60;48.90
4406;DHT22;2216;53.806;11.598;2022-08-14T09:03:25;28.60;48.70
4406;DHT22;2216;53.806;11.598;2022-08-14T09:08:25;28.60;48.70
4406;DHT22;2216;53.806;11.598;2022-08-14T09:10:53;28.60;48.70
4406;DHT22;2216;53.806;11.598;2022-08-14T09:13:20;28.70;48.70
4406;DHT22;2216;53.806;11.598;2022-08-14T09:15:48;28.80;48.80
4406;DHT22;2216;53.806;11.598;2022-08-14T09:18:17;28.80;48.80
4406;DHT22;2216;53.806;11.598;2022-08-14T09:20:45;28.90;48.80
4406;DHT22;2216;53.806;11.598;2022-08-14T09:23:14;29.00;48.70
4406;DHT22;2216;53.806;11.598;2022-08-14T09:25:41;29.00;48.70
4406;DHT22;2216;53.806;11.598;2022-08-14T09:28:09;29.10;48.50
4406;DHT22;2216;53.806;11.598;2022-08-14T09:30:39;29.30;49.20
4406;DHT22;2216;53.806;11.598;2022-08-14T09:33:32;29.40;48.60
4406;DHT22;2216;53.806;11.598;2022-08-14T09:36:42;29.40;48.30
4406;DHT22;2216;53.806;11.598;2022-08-14T09:39:58;29.50;48.30
4406;DHT22;2216;53.806;11.598;2022-08-14T09:42:27;29.60;48.30
4406;DHT22;2216;53.806;11.598;2022-08-14T09:45:16;29.80;48.30
4406;DHT22;2216;53.806;11.598;2022-08-14T09:50:22;30.10;48.30
4406;DHT22;2216;53.806;11.598;2022-08-14T09:53:02;30.30;48.40
4406;DHT22;2216;53.806;11.598;2022-08-14T09:55:31;30.50;48.10
4406;DHT22;2216;53.806;11.598;2022-08-14T09:58:16;30.70;48.10
4406;DHT22;2216;53.806;11.598;2022-08-14T10:00:48;30.80;48.00
4406;DHT22;2216;53.806;11.598;2022-08-14T10:03:32;30.80;47.10
4406;DHT22;2216;53.806;11.598;2022-08-14T10:06:05;31.10;47.20
4406;DHT22;2216;53.806;11.598;2022-08-14T10:08:48;30.90;47.20
4406;DHT22;2216;53.806;11.598;2022-08-14T10:11:22;31.00;46.90
4406;DHT22;2216;53.806;11.598;2022-08-14T10:13:55;31.10;47.30
4406;DHT22;2216;53.806;11.598;2022-08-14T10:16:27;31.20;46.60
4406;DHT22;2216;53.806;11.598;2022-08-14T10:19:23;31.20;46.50
4406;DHT22;2216;53.806;11.598;2022-08-14T10:21:58;31.20;46.20
4406;DHT22;2216;53.806;11.598;2022-08-14T10:24:41;31.20;46.20
4406;DHT22;2216;53.806;11.598;2022-08-14T10:27:16;31.30;46.30
4406;DHT22;2216;53.806;11.598;2022-08-14T10:29:48;31.30;46.40
4406;DHT22;2216;53.806;11.598;2022-08-14T10:32:21;31.30;45.60
4406;DHT22;2216;53.806;11.598;2022-08-14T10:34:49;31.40;45.50
4406;DHT22;2216;53.806;11.598;2022-08-14T10:37:16;31.40;46.30
4406;DHT22;2216;53.806;11.598;2022-08-14T10:39:45;31.40;45.90
4406;DHT22;2216;53.806;11.598;2022-08-14T10:42:34;31.50;45.90
4406;DHT22;2216;53.806;11.598;2022-08-14T10:45:36;31.60;46.00
4406;DHT22;2216;53.806;11.598;2022-08-14T10:48:13;31.60;45.80
4406;DHT22;2216;53.806;11.598;2022-08-14T10:50:41;31.70;45.70
4406;DHT22;2216;53.806;11.598;2022-08-14T10:53:14;31.80;45.60
4406;DHT22;2216;53.806;11.598;2022-08-14T10:55:40;31.90;45.70
4406;DHT22;2216;53.806;11.598;2022-08-14T10:58:08;32.00;45.30
4406;DHT22;2216;53.806;11.598;2022-08-14T11:00:37;32.00;45.40
4406;DHT22;2216;53.806;11.598;2022-08-14T11:03:09;32.10;45.30
4406;DHT22;2216;53.806;11.598;2022-08-14T11:05:43;32.20;45.00
4406;DHT22;2216;53.806;11.598;2022-08-14T11:08:11;32.20;44.50
4406;DHT22;2216;53.806;11.598;2022-08-14T11:13:19;32.20;44.90
4406;DHT22;2216;53.806;11.598;2022-08-14T11:15:46;32.30;44.20
4406;DHT22;2216;53.806;11.598;2022-08-14T11:18:13;32.30;44.00
4406;DHT22;2216;53.806;11.598;2022-08-14T11:20:47;32.30;43.90
4406;DHT22;2216;53.806;11.598;2022-08-14T11:23:15;32.30;44.10
4406;DHT22;2216;53.806;11.598;2022-08-14T11:25:44;32.30;44.20
4406;DHT22;2216;53.806;11.598;2022-08-14T11:28:14;32.20;44.10
4406;DHT22;2216;53.806;11.598;2022-08-14T11:30:42;32.30;43.80
4406;DHT22;2216;53.806;11.598;2022-08-14T11:33:09;32.30;44.10
4406;DHT22;2216;53.806;11.598;2022-08-14T11:35:36;32.40;43.80
4406;DHT22;2216;53.806;11.598;2022-08-14T11:38:04;32.50;43.90
4406;DHT22;2216;53.806;11.598;2022-08-14T11:40:36;32.60;44.70
4406;DHT22;2216;53.806;11.598;2022-08-14T11:43:05;32.60;44.10
4406;DHT22;2216;53.806;11.598;2022-08-14T11:45:33;32.70;44.00
4406;DHT22;2216;53.806;11.598;2022-08-14T11:48:13;32.80;44.00
4406;DHT22;2216;53.806;11.598;2022-08-14T11:50:43;32.90;44.10
4406;DHT22;2216;53.806;11.598;2022-08-14T11:53:29;33.00;44.00
4406;DHT22;2216;53.806;11.598;2022-08-14T11:56:04;33.10;43.60
4406;DHT22;2216;53.806;11.598;2022-08-14T11:58:33;33.10;43.30
4406;DHT22;2216;53.806;11.598;2022-08-14T12:01:04;33.20;43.40
4406;DHT22;2216;53.806;11.598;2022-08-14T12:06:08;33.30;43.30
4406;DHT22;2216;53.806;11.598;2022-08-14T12:08:36;33.20;42.80
4406;DHT22;2216;53.806;11.598;2022-08-14T12:11:04;33.20;43.20
4406;DHT22;2216;53.806;11.598;2022-08-14T12:13:31;33.10;42.70
4406;DHT22;2216;53.806;11.598;2022-08-14T12:16:04;33.20;41.90
4406;DHT22;2216;53.806;11.598;2022-08-14T12:18:41;33.10;42.40
4406;DHT22;2216;53.806;11.598;2022-08-14T12:21:16;33.10;40.90
4406;DHT22;2216;53.806;11.598;2022-08-14T12:23:59;33.10;41.90
4406;DHT22;2216;53.806;11.598;2022-08-14T12:26:26;33.00;41.50
4406;DHT22;2216;53.806;11.598;2022-08-14T12:29:10;33.00;41.60
4406;DHT22;2216;53.806;11.598;2022-08-14T12:31:39;33.00;41.70
4406;DHT22;2216;53.806;11.598;2022-08-14T12:34:13;33.20;41.50
4406;DHT22;2216;53.806;11.598;2022-08-14T12:36:40;33.10;41.00
4406;DHT22;2216;53.806;11.598;2022-08-14T12:39:21;33.10;41.60
4406;DHT22;2216;53.806;11.598;2022-08-14T12:41:55;33.10;41.50
4406;DHT22;2216;53.806;11.598;2022-08-14T12:44:39;33.10;41.60
4406;DHT22;2216;53.806;11.598;2022-08-14T12:49:37;33.20;40.70
4406;DHT22;2216;53.806;11.598;2022-08-14T12:52:03;33.10;40.90
4406;DHT22;2216;53.806;11.598;2022-08-14T12:54:31;33.20;40.90
4406;DHT22;2216;53.806;11.598;2022-08-14T12:57:21;33.10;40.60
4406;DHT22;2216;53.806;11.598;2022-08-14T12:59:49;33.20;40.80
4406;DHT22;2216;53.806;11.598;2022-08-14T13:02:23;33.20;40.70
4406;DHT22;2216;53.806;11.598;2022-08-14T13:04:51;33.10;40.60
4406;DHT22;2216;53.806;11.598;2022-08-14T13:07:19;33.10;40.60
4406;DHT22;2216;53.806;11.598;2022-08-14T13:09:45;33.10;40.20
4406;DHT22;2216;53.806;11.598;2022-08-14T13:12:11;33.00;40.30
4406;DHT22;2216;53.806;11.598;2022-08-14T13:14:37;33.00;39.90
4406;DHT22;2216;53.806;11.598;2022-08-14T13:17:03;33.00;40.30
4406;DHT22;2216;53.806;11.598;2022-08-14T13:19:29;33.00;40.50
4406;DHT22;2216;53.806;11.598;2022-08-14T13:21:55;33.00;40.00
4406;DHT22;2216;53.806;11.598;2022-08-14T13:24:23;33.00;40.20
4406;DHT22;2216;53.806;11.598;2022-08-14T13:26:51;33.10;40.10
4406;DHT22;2216;53.806;11.598;2022-08-14T13:29:22;33.00;39.80
4406;DHT22;2216;53.806;11.598;2022-08-14T13:31:51;33.10;40.20
4406;DHT22;2216;53.806;11.598;2022-08-14T13:34:24;33.00;39.80
4406;DHT22;2216;53.806;11.598;2022-08-14T13:36:52;33.00;39.90
4406;DHT22;2216;53.806;11.598;2022-08-14T13:39:22;33.10;40.10
4406;DHT22;2216;53.806;11.598;2022-08-14T13:41:48;33.00;40.00
4406;DHT22;2216;53.806;11.598;2022-08-14T13:44:16;33.10;40.20
4406;DHT22;2216;53.806;11.598;2022-08-14T13:46:46;33.10;39.70
4406;DHT22;2216;53.806;11.598;2022-08-14T13:49:14;33.10;39.90
4406;DHT22;2216;53.806;11.598;2022-08-14T13:51:46;33.10;39.50
4406;DHT22;2216;53.806;11.598;2022-08-14T13:54:17;33.10;40.00
4406;DHT22;2216;53.806;11.598;2022-08-14T13:56:45;33.10;40.00
4406;DHT22;2216;53.806;11.598;2022-08-14T13:59:12;33.10;39.70
4406;DHT22;2216;53.806;11.598;2022-08-14T14:01:39;33.10;39.90
4406;DHT22;2216;53.806;11.598;2022-08-14T14:04:16;33.00;39.50
4406;DHT22;2216;53.806;11.598;2022-08-14T14:06:45;32.90;39.50
4406;DHT22;2216;53.806;11.598;2022-08-14T14:09:14;32.90;39.50
4406;DHT22;2216;53.806;11.598;2022-08-14T14:11:42;32.90;39.50
4406;DHT22;2216;53.806;11.598;2022-08-14T14:14:08;32.80;39.10
4406;DHT22;2216;53.806;11.598;2022-08-14T14:16:38;32.80;39.50
4406;DHT22;2216;53.806;11.598;2022-08-14T14:19:05;32.80;39.00
4406;DHT22;2216;53.806;11.598;2022-08-14T14:21:32;32.70;39.30
4406;DHT22;2216;53.806;11.598;2022-08-14T14:23:58;32.60;39.20
4406;DHT22;2216;53.806;11.598;2022-08-14T14:26:25;32.60;39.10
4406;DHT22;2216;53.806;11.598;2022-08-14T14:28:54;32.60;39.30
4406;DHT22;2216;53.806;11.598;2022-08-14T14:31:23;32.60;39.40
4406;DHT22;2216;53.806;11.598;2022-08-14T14:33:55;32.50;39.60
4406;DHT22;2216;53.806;11.598;2022-08-14T14:36:25;32.50;39.70
4406;DHT22;2216;53.806;11.598;2022-08-14T14:38:55;32.50;39.90
4406;DHT22;2216;53.806;11.598;2022-08-14T14:41:24;32.70;39.60
4406;DHT22;2216;53.806;11.598;2022-08-14T14:43:52;32.60;39.40
4406;DHT22;2216;53.806;11.598;2022-08-14T14:46:21;32.60;39.40
4406;DHT22;2216;53.806;11.598;2022-08-14T14:48:47;32.60;39.40
4406;DHT22;2216;53.806;11.598;2022-08-14T14:51:15;32.60;39.20
4406;DHT22;2216;53.806;11.598;2022-08-14T14:53:43;32.60;38.90
4406;DHT22;2216;53.806;11.598;2022-08-14T14:56:09;32.40;39.60
4406;DHT22;2216;53.806;11.598;2022-08-14T14:58:37;32.40;39.10
4406;DHT22;2216;53.806;11.598;2022-08-14T15:01:04;32.40;38.80
4406;DHT22;2216;53.806;11.598;2022-08-14T15:03:39;32.40;38.60
4406;DHT22;2216;53.806;11.598;2022-08-14T15:06:06;32.30;38.90
4406;DHT22;2216;53.806;11.598;2022-08-14T15:08:32;32.30;39.10
4406;DHT22;2216;53.806;11.598;2022-08-14T15:10:58;32.30;39.30
4406;DHT22;2216;53.806;11.598;2022-08-14T15:13:25;32.30;38.90
4406;DHT22;2216;53.806;11.598;2022-08-14T15:15:52;32.30;38.90
4406;DHT22;2216;53.806;11.598;2022-08-14T15:18:21;32.20;38.90
4406;DHT22;2216;53.806;11.598;2022-08-14T15:20:50;32.20;38.90
4406;DHT22;2216;53.806;11.598;2022-08-14T15:23:21;32.20;39.10
4406;DHT22;2216;53.806;11.598;2022-08-14T15:25:47;32.20;39.10
4406;DHT22;2216;53.806;11.598;2022-08-14T15:28:13;32.00;38.70
4406;DHT22;2216;53.806;11.598;2022-08-14T15:30:40;32.10;38.90
4406;DHT22;2216;53.806;11.598;2022-08-14T15:33:07;32.10;38.70
4406;DHT22;2216;53.806;11.598;2022-08-14T15:35:33;32.00;39.10
4406;DHT22;2216;53.806;11.598;2022-08-14T15:38:00;32.00;38.90
4406;DHT22;2216;53.806;11.598;2022-08-14T15:40:40;32.00;38.50
4406;DHT22;2216;53.806;11.598;2022-08-14T15:43:09;31.90;38.60
4406;DHT22;2216;53.806;11.598;2022-08-14T15:45:37;31.90;38.70
4406;DHT22;2216;53.806;11.598;2022-08-14T15:48:06;31.90;38.70
4406;DHT22;2216;53.806;11.598;2022-08-14T15:50:33;31.80;38.60
4406;DHT22;2216;53.806;11.598;2022-08-14T15:52:59;31.80;38.90
4406;DHT22;2216;53.806;11.598;2022-08-14T15:55:25;31.70;38.90
4406;DHT22;2216;53.806;11.598;2022-08-14T15:57:50;31.60;38.80
4406;DHT22;2216;53.806;11.598;2022-08-14T16:00:17;31.70;39.10
4406;DHT22;2216;53.806;11.598;2022-08-14T16:03:02;31.50;39.10
4406;DHT22;2216;53.806;11.598;2022-08-14T16:05:28;31.40;39.20
4406;DHT22;2216;53.806;11.598;2022-08-14T16:07:54;31.30;39.20
4406;DHT22;2216;53.806;11.598;2022-08-14T16:10:21;31.30;39.20
4406;DHT22;2216;53.806;11.598;2022-08-14T16:12:49;31.10;39.30
4406;DHT22;2216;53.806;11.598;2022-08-14T16:15:16;31.10;39.30